• Join FlightAware (Why Join?)
  • Login
  • US Flag 
07:26PM EDT


 

Airport Tracker/Info


-or-


 

Live Flight TrackerFlight Track Log ✈ BHS282 ✈ 15-Jun-2013 ✈ KPBI - MYAM / MHH

Flight Track Log - Related Links

Times and Time Zones

All times are in EDT time to prevent confusion due to time zone crossing. See the BHS282 flight status page for this flight to view local times or setup timezone preferences in your user account.

Time Position Orientation Groundspeed Altitude Reporting Facility
EDT Latitude Longitude Course Direction KTS MPH feet Rate Location/Type
12:58PM 26.6662 -79.7405 90° East  Level Estimated
12:58PM 26.7278 -79.9875 90° East 240 276 6,000  Level Miami Center
12:59PM 26.6666 -79.6694 90° East  Level FlightAware Approximate
12:59PM 26.7144 -79.9242 103° East 252 290 6,000  Level Miami Center
01:00PM 26.6630 -79.5984 90° East  Level Estimated
01:00PM 26.6975 -79.8353 102° East 267 307 6,000  Level Miami Center
01:01PM 26.6653 -79.5274 88° East  Level FlightAware Approximate
01:01PM 26.6822 -79.7653 104° East 267 307 6,900  Level Miami Center
01:02PM 26.6614 -79.4564 90° East  Level Estimated
01:02PM 26.6794 -79.6931 92° East 223 257 8,600  Level Miami Center
01:03PM 26.6575 -79.3854 90° East  Level Estimated
01:03PM 26.6786 -79.6350 91° East 204 235 9,700  Level Miami Center
01:04PM 26.6778 -79.5675 91° East 193 222 10,800 960 Climbing Miami Center
01:05PM 26.6747 -79.5069 93° East 198 228 11,700 900 Climbing Miami Center
01:06PM 26.6717 -79.4442 93° East 198 228 12,700 600 Climbing Miami Center
01:07PM 26.6664 -79.3789 95° East 198 228 13,000 300 Climbing Miami Center
01:08PM 26.6617 -79.3022 94° East 231 266 13,300 660 Climbing Miami Center
01:09PM 26.6586 -79.2325 93° East 238 274 14,400 780 Climbing Miami Center
01:10PM 26.6533 -79.1603 95° East 233 268 14,900 300 Climbing Miami Center
01:11PM 26.6503 -79.0881 93° East 233 268 15,000  Climbing Miami Center
01:12PM 26.6431 -79.0089 96° East 245 282 15,000  Level Miami Center
01:13PM 26.6403 -78.9275 92° East 251 289 15,000  Level Miami Center
01:14PM 26.6331 -78.8436 95° East 262 302 15,000  Level Miami Center
01:15PM 26.6319 -78.7647 91° East 257 296 15,000  Level Miami Center
01:16PM 26.6183 -78.6831 101° East 257 296 15,000  Level Miami Center
01:17PM 26.6150 -78.6111 93° East 252 290 15,000  Level Miami Center
01:18PM 26.6097 -78.5272 94° East 252 290 15,000  Level Miami Center
01:19PM 26.6044 -78.4483 94° East 259 298 15,000  Level Miami Center
01:20PM 26.6011 -78.3622 92° East 259 298 15,000  Level Miami Center
01:21PM 26.5978 -78.2761 92° East 264 304 15,000  Level Miami Center
01:22PM 26.5903 -78.1972 96° East 254 292 15,000  Level Miami Center
01:23PM 26.5844 -78.1250 95° East 256 295 15,000  Level Miami Center
01:24PM 26.5811 -78.0367 92° East 262 302 15,000 -540 Level Miami Center
01:25PM 26.5714 -77.9575 98° East 262 302 14,000 -1,260 Descending Miami Center
01:26PM 26.5658 -77.8600 94° East 281 323 12,500 -1,500 Descending Miami Center
01:27PM 26.5581 -77.7739 96° East 281 323 11,100 -1,500 Descending Miami Center
01:28PM 26.5522 -77.6856 94° East 287 330 9,600 -1,500 Descending Miami Center